sensor_id;sensor_type;location;lat;lon;timestamp;temperature;humidity
24217;DHT22;12356;49.386;8.688;2023-05-10T00:02:26;15.80;88.70
24217;DHT22;12356;49.386;8.688;2023-05-10T00:04:56;15.80;88.90
24217;DHT22;12356;49.386;8.688;2023-05-10T00:07:27;15.80;88.30
24217;DHT22;12356;49.386;8.688;2023-05-10T00:09:58;15.70;88.20
24217;DHT22;12356;49.386;8.688;2023-05-10T00:12:28;15.70;88.00
24217;DHT22;12356;49.386;8.688;2023-05-10T00:14:59;15.70;87.70
24217;DHT22;12356;49.386;8.688;2023-05-10T00:17:30;15.70;87.60
24217;DHT22;12356;49.386;8.688;2023-05-10T00:20:01;15.70;87.50
24217;DHT22;12356;49.386;8.688;2023-05-10T00:22:32;15.70;87.80
24217;DHT22;12356;49.386;8.688;2023-05-10T00:25:03;15.70;87.10
24217;DHT22;12356;49.386;8.688;2023-05-10T00:27:34;15.60;86.30
24217;DHT22;12356;49.386;8.688;2023-05-10T00:30:05;15.60;86.70
24217;DHT22;12356;49.386;8.688;2023-05-10T00:32:36;15.60;86.70
24217;DHT22;12356;49.386;8.688;2023-05-10T00:35:07;15.50;86.50
24217;DHT22;12356;49.386;8.688;2023-05-10T00:37:38;15.50;86.60
24217;DHT22;12356;49.386;8.688;2023-05-10T00:40:08;15.50;86.40
24217;DHT22;12356;49.386;8.688;2023-05-10T00:42:39;15.50;86.30
24217;DHT22;12356;49.386;8.688;2023-05-10T00:45:10;15.50;86.10
24217;DHT22;12356;49.386;8.688;2023-05-10T00:47:42;15.40;86.90
24217;DHT22;12356;49.386;8.688;2023-05-10T00:50:13;15.50;86.70
24217;DHT22;12356;49.386;8.688;2023-05-10T00:52:43;15.40;86.50
24217;DHT22;12356;49.386;8.688;2023-05-10T00:55:14;15.40;86.60
24217;DHT22;12356;49.386;8.688;2023-05-10T00:57:45;15.40;86.80
24217;DHT22;12356;49.386;8.688;2023-05-10T01:00:16;15.40;87.10
24217;DHT22;12356;49.386;8.688;2023-05-10T01:02:48;15.40;86.80
24217;DHT22;12356;49.386;8.688;2023-05-10T01:05:19;15.40;86.70
24217;DHT22;12356;49.386;8.688;2023-05-10T01:07:50;15.40;86.90
24217;DHT22;12356;49.386;8.688;2023-05-10T01:10:21;15.30;87.40
24217;DHT22;12356;49.386;8.688;2023-05-10T01:12:52;15.30;87.40
24217;DHT22;12356;49.386;8.688;2023-05-10T01:15:23;15.30;87.20
24217;DHT22;12356;49.386;8.688;2023-05-10T01:17:54;15.40;87.20
24217;DHT22;12356;49.386;8.688;2023-05-10T01:20:24;15.40;87.30
24217;DHT22;12356;49.386;8.688;2023-05-10T01:31:38;15.30;86.80
24217;DHT22;12356;49.386;8.688;2023-05-10T01:34:16;15.40;86.70
24217;DHT22;12356;49.386;8.688;2023-05-10T01:36:56;15.40;87.00
24217;DHT22;12356;49.386;8.688;2023-05-10T01:39:36;15.30;86.90
24217;DHT22;12356;49.386;8.688;2023-05-10T01:42:11;15.30;86.60
24217;DHT22;12356;49.386;8.688;2023-05-10T01:47:58;15.30;86.90
24217;DHT22;12356;49.386;8.688;2023-05-10T01:50:35;15.30;87.40
24217;DHT22;12356;49.386;8.688;2023-05-10T01:53:08;15.30;87.60
24217;DHT22;12356;49.386;8.688;2023-05-10T01:55:50;15.30;87.60
24217;DHT22;12356;49.386;8.688;2023-05-10T01:58:30;15.40;87.50
24217;DHT22;12356;49.386;8.688;2023-05-10T02:01:03;15.30;87.10
24217;DHT22;12356;49.386;8.688;2023-05-10T02:03:35;15.40;87.60
24217;DHT22;12356;49.386;8.688;2023-05-10T02:06:07;15.30;87.40
24217;DHT22;12356;49.386;8.688;2023-05-10T02:08:40;15.30;87.10
24217;DHT22;12356;49.386;8.688;2023-05-10T02:11:13;15.30;87.50
24217;DHT22;12356;49.386;8.688;2023-05-10T02:13:44;15.40;87.30
24217;DHT22;12356;49.386;8.688;2023-05-10T02:16:18;15.40;86.90
24217;DHT22;12356;49.386;8.688;2023-05-10T02:18:52;15.40;86.90
24217;DHT22;12356;49.386;8.688;2023-05-10T02:21:24;15.40;86.40
24217;DHT22;12356;49.386;8.688;2023-05-10T02:23:57;15.40;86.80
24217;DHT22;12356;49.386;8.688;2023-05-10T02:26:28;15.30;86.70
24217;DHT22;12356;49.386;8.688;2023-05-10T02:29:02;15.30;87.00
24217;DHT22;12356;49.386;8.688;2023-05-10T02:31:34;15.30;86.90
24217;DHT22;12356;49.386;8.688;2023-05-10T02:34:06;15.40;86.60
24217;DHT22;12356;49.386;8.688;2023-05-10T02:36:39;15.30;86.50
24217;DHT22;12356;49.386;8.688;2023-05-10T02:39:11;15.30;86.20
24217;DHT22;12356;49.386;8.688;2023-05-10T02:41:45;15.20;85.60
24217;DHT22;12356;49.386;8.688;2023-05-10T02:44:18;15.20;85.30
24217;DHT22;12356;49.386;8.688;2023-05-10T02:46:49;15.20;85.20
24217;DHT22;12356;49.386;8.688;2023-05-10T02:49:20;15.20;85.20
24217;DHT22;12356;49.386;8.688;2023-05-10T02:51:56;15.10;85.30
24217;DHT22;12356;49.386;8.688;2023-05-10T02:54:31;15.20;85.30
24217;DHT22;12356;49.386;8.688;2023-05-10T02:57:04;15.20;85.70
24217;DHT22;12356;49.386;8.688;2023-05-10T02:59:35;15.10;85.70
24217;DHT22;12356;49.386;8.688;2023-05-10T03:02:07;15.10;84.70
24217;DHT22;12356;49.386;8.688;2023-05-10T03:04:37;15.10;85.10
24217;DHT22;12356;49.386;8.688;2023-05-10T03:07:08;15.00;85.00
24217;DHT22;12356;49.386;8.688;2023-05-10T03:09:39;15.00;85.00
24217;DHT22;12356;49.386;8.688;2023-05-10T03:15:17;15.10;84.60
24217;DHT22;12356;49.386;8.688;2023-05-10T03:20:46;15.00;85.40
24217;DHT22;12356;49.386;8.688;2023-05-10T03:25:48;15.10;85.30
24217;DHT22;12356;49.386;8.688;2023-05-10T03:28:20;15.10;85.10
24217;DHT22;12356;49.386;8.688;2023-05-10T03:30:52;15.00;85.00
24217;DHT22;12356;49.386;8.688;2023-05-10T03:33:23;15.10;85.10
24217;DHT22;12356;49.386;8.688;2023-05-10T03:35:54;15.10;85.50
24217;DHT22;12356;49.386;8.688;2023-05-10T03:38:24;15.00;85.90
24217;DHT22;12356;49.386;8.688;2023-05-10T03:40:55;15.00;86.00
24217;DHT22;12356;49.386;8.688;2023-05-10T03:43:26;15.00;85.90
24217;DHT22;12356;49.386;8.688;2023-05-10T03:45:56;15.00;85.90
24217;DHT22;12356;49.386;8.688;2023-05-10T03:48:27;15.00;85.70
24217;DHT22;12356;49.386;8.688;2023-05-10T03:50:57;15.00;86.10
24217;DHT22;12356;49.386;8.688;2023-05-10T03:53:28;15.00;85.80
24217;DHT22;12356;49.386;8.688;2023-05-10T03:55:58;15.00;85.80
24217;DHT22;12356;49.386;8.688;2023-05-10T03:58:29;15.00;85.80
24217;DHT22;12356;49.386;8.688;2023-05-10T04:00:59;15.00;85.80
24217;DHT22;12356;49.386;8.688;2023-05-10T04:03:30;15.00;86.20
24217;DHT22;12356;49.386;8.688;2023-05-10T04:06:01;15.00;86.40
24217;DHT22;12356;49.386;8.688;2023-05-10T04:08:32;15.00;86.60
24217;DHT22;12356;49.386;8.688;2023-05-10T04:11:10;15.00;86.30
24217;DHT22;12356;49.386;8.688;2023-05-10T04:13:41;15.00;86.80
24217;DHT22;12356;49.386;8.688;2023-05-10T04:16:11;15.00;86.70
24217;DHT22;12356;49.386;8.688;2023-05-10T04:18:42;15.00;86.60
24217;DHT22;12356;49.386;8.688;2023-05-10T04:21:13;15.00;86.50
24217;DHT22;12356;49.386;8.688;2023-05-10T04:23:44;15.00;86.60
24217;DHT22;12356;49.386;8.688;2023-05-10T04:26:14;15.00;86.70
24217;DHT22;12356;49.386;8.688;2023-05-10T04:28:45;15.00;86.40
24217;DHT22;12356;49.386;8.688;2023-05-10T04:31:15;14.90;86.50
24217;DHT22;12356;49.386;8.688;2023-05-10T04:33:46;14.90;86.90
24217;DHT22;12356;49.386;8.688;2023-05-10T04:36:16;15.00;87.20
24217;DHT22;12356;49.386;8.688;2023-05-10T04:38:47;15.00;87.30
24217;DHT22;12356;49.386;8.688;2023-05-10T04:41:18;15.00;88.00
24217;DHT22;12356;49.386;8.688;2023-05-10T04:43:48;15.00;87.70
24217;DHT22;12356;49.386;8.688;2023-05-10T04:46:19;15.00;87.70
24217;DHT22;12356;49.386;8.688;2023-05-10T04:48:50;15.00;87.30
24217;DHT22;12356;49.386;8.688;2023-05-10T04:51:20;15.00;87.30
24217;DHT22;12356;49.386;8.688;2023-05-10T04:53:51;15.00;87.20
24217;DHT22;12356;49.386;8.688;2023-05-10T04:56:21;15.00;87.10
24217;DHT22;12356;49.386;8.688;2023-05-10T04:58:52;15.00;86.90
24217;DHT22;12356;49.386;8.688;2023-05-10T05:01:23;15.00;87.20
24217;DHT22;12356;49.386;8.688;2023-05-10T05:03:54;15.00;86.90
24217;DHT22;12356;49.386;8.688;2023-05-10T05:06:25;15.00;86.70
24217;DHT22;12356;49.386;8.688;2023-05-10T05:08:56;15.00;86.80
24217;DHT22;12356;49.386;8.688;2023-05-10T05:11:26;15.00;86.80
24217;DHT22;12356;49.386;8.688;2023-05-10T05:13:57;15.00;86.70
24217;DHT22;12356;49.386;8.688;2023-05-10T05:16:30;15.00;87.30
24217;DHT22;12356;49.386;8.688;2023-05-10T05:19:01;15.00;86.60
24217;DHT22;12356;49.386;8.688;2023-05-10T05:21:31;15.00;86.40
24217;DHT22;12356;49.386;8.688;2023-05-10T05:24:03;15.00;86.20
24217;DHT22;12356;49.386;8.688;2023-05-10T05:26:33;15.00;86.20
24217;DHT22;12356;49.386;8.688;2023-05-10T05:29:04;15.00;85.50
24217;DHT22;12356;49.386;8.688;2023-05-10T05:31:35;15.00;85.80
24217;DHT22;12356;49.386;8.688;2023-05-10T05:34:05;15.00;86.10
24217;DHT22;12356;49.386;8.688;2023-05-10T05:36:39;15.00;85.70
24217;DHT22;12356;49.386;8.688;2023-05-10T05:39:09;15.00;86.30
24217;DHT22;12356;49.386;8.688;2023-05-10T05:41:40;15.00;85.40
24217;DHT22;12356;49.386;8.688;2023-05-10T05:44:10;15.00;85.70
24217;DHT22;12356;49.386;8.688;2023-05-10T05:46:41;15.00;85.60
24217;DHT22;12356;49.386;8.688;2023-05-10T05:49:11;15.10;85.40
24217;DHT22;12356;49.386;8.688;2023-05-10T05:51:42;15.10;85.10
24217;DHT22;12356;49.386;8.688;2023-05-10T05:54:13;15.10;85.20
24217;DHT22;12356;49.386;8.688;2023-05-10T05:56:44;15.10;85.40
24217;DHT22;12356;49.386;8.688;2023-05-10T05:59:14;15.10;85.10
24217;DHT22;12356;49.386;8.688;2023-05-10T06:01:45;15.10;85.20
24217;DHT22;12356;49.386;8.688;2023-05-10T06:04:16;15.10;85.10
24217;DHT22;12356;49.386;8.688;2023-05-10T06:06:46;15.10;85.30
24217;DHT22;12356;49.386;8.688;2023-05-10T06:09:17;15.10;85.80
24217;DHT22;12356;49.386;8.688;2023-05-10T06:11:47;15.10;85.70
24217;DHT22;12356;49.386;8.688;2023-05-10T06:14:20;15.10;86.00
24217;DHT22;12356;49.386;8.688;2023-05-10T06:16:51;15.10;85.60
24217;DHT22;12356;49.386;8.688;2023-05-10T06:19:21;15.10;85.20
24217;DHT22;12356;49.386;8.688;2023-05-10T06:21:52;15.10;85.40
24217;DHT22;12356;49.386;8.688;2023-05-10T06:24:22;15.10;85.10
24217;DHT22;12356;49.386;8.688;2023-05-10T06:26:53;15.10;85.20
24217;DHT22;12356;49.386;8.688;2023-05-10T06:29:23;15.20;85.50
24217;DHT22;12356;49.386;8.688;2023-05-10T06:31:54;15.10;85.30
24217;DHT22;12356;49.386;8.688;2023-05-10T06:34:24;15.20;85.30
24217;DHT22;12356;49.386;8.688;2023-05-10T06:36:55;15.10;85.10
24217;DHT22;12356;49.386;8.688;2023-05-10T06:39:25;15.20;85.30
24217;DHT22;12356;49.386;8.688;2023-05-10T06:41:56;15.20;85.20
24217;DHT22;12356;49.386;8.688;2023-05-10T06:44:27;15.20;85.20
24217;DHT22;12356;49.386;8.688;2023-05-10T06:46:57;15.20;85.20
24217;DHT22;12356;49.386;8.688;2023-05-10T06:49:28;15.20;85.20
24217;DHT22;12356;49.386;8.688;2023-05-10T06:51:58;15.20;84.90
24217;DHT22;12356;49.386;8.688;2023-05-10T06:54:29;15.30;84.90
24217;DHT22;12356;49.386;8.688;2023-05-10T06:56:59;15.30;85.00
24217;DHT22;12356;49.386;8.688;2023-05-10T06:59:30;15.30;85.70
24217;DHT22;12356;49.386;8.688;2023-05-10T07:02:00;15.30;86.00
24217;DHT22;12356;49.386;8.688;2023-05-10T07:04:31;15.30;86.20
24217;DHT22;12356;49.386;8.688;2023-05-10T07:07:02;15.30;85.30
24217;DHT22;12356;49.386;8.688;2023-05-10T07:09:32;15.30;84.90
24217;DHT22;12356;49.386;8.688;2023-05-10T07:12:04;15.30;85.10
24217;DHT22;12356;49.386;8.688;2023-05-10T07:14:34;15.30;83.30
24217;DHT22;12356;49.386;8.688;2023-05-10T07:17:05;15.30;83.40
24217;DHT22;12356;49.386;8.688;2023-05-10T07:19:35;15.20;82.90
24217;DHT22;12356;49.386;8.688;2023-05-10T07:22:06;15.30;83.40
24217;DHT22;12356;49.386;8.688;2023-05-10T07:24:36;15.30;83.60
24217;DHT22;12356;49.386;8.688;2023-05-10T07:27:07;15.30;83.80
24217;DHT22;12356;49.386;8.688;2023-05-10T07:29:38;15.30;84.10
24217;DHT22;12356;49.386;8.688;2023-05-10T07:32:09;15.30;84.50
24217;DHT22;12356;49.386;8.688;2023-05-10T07:34:39;15.30;84.40
24217;DHT22;12356;49.386;8.688;2023-05-10T07:37:10;15.30;85.30
24217;DHT22;12356;49.386;8.688;2023-05-10T07:39:40;15.40;85.80
24217;DHT22;12356;49.386;8.688;2023-05-10T07:42:11;15.40;86.20
24217;DHT22;12356;49.386;8.688;2023-05-10T07:44:41;15.40;86.10
24217;DHT22;12356;49.386;8.688;2023-05-10T07:47:12;15.40;86.40
24217;DHT22;12356;49.386;8.688;2023-05-10T07:49:43;15.40;86.20
24217;DHT22;12356;49.386;8.688;2023-05-10T07:52:13;15.50;85.40
24217;DHT22;12356;49.386;8.688;2023-05-10T07:54:44;15.50;85.40
24217;DHT22;12356;49.386;8.688;2023-05-10T07:57:15;15.50;84.60
24217;DHT22;12356;49.386;8.688;2023-05-10T07:59:47;15.50;84.20
24217;DHT22;12356;49.386;8.688;2023-05-10T08:02:18;15.60;84.70
24217;DHT22;12356;49.386;8.688;2023-05-10T08:04:48;15.60;85.50
24217;DHT22;12356;49.386;8.688;2023-05-10T08:07:19;15.60;85.10
24217;DHT22;12356;49.386;8.688;2023-05-10T08:09:50;15.60;85.50
24217;DHT22;12356;49.386;8.688;2023-05-10T08:12:20;15.60;85.00
24217;DHT22;12356;49.386;8.688;2023-05-10T08:14:51;15.70;83.80
24217;DHT22;12356;49.386;8.688;2023-05-10T08:17:21;15.70;83.90
24217;DHT22;12356;49.386;8.688;2023-05-10T08:19:51;15.80;83.90
24217;DHT22;12356;49.386;8.688;2023-05-10T08:22:22;15.80;83.10
24217;DHT22;12356;49.386;8.688;2023-05-10T08:24:52;15.80;82.40
24217;DHT22;12356;49.386;8.688;2023-05-10T08:27:23;15.90;82.40
24217;DHT22;12356;49.386;8.688;2023-05-10T08:29:53;15.90;81.80
24217;DHT22;12356;49.386;8.688;2023-05-10T08:32:24;15.90;80.90
24217;DHT22;12356;49.386;8.688;2023-05-10T08:34:55;15.90;80.30
24217;DHT22;12356;49.386;8.688;2023-05-10T08:37:29;16.00;79.40
24217;DHT22;12356;49.386;8.688;2023-05-10T08:40:00;16.00;79.50
24217;DHT22;12356;49.386;8.688;2023-05-10T08:42:34;16.00;78.60
24217;DHT22;12356;49.386;8.688;2023-05-10T08:45:07;16.00;76.60
24217;DHT22;12356;49.386;8.688;2023-05-10T08:47:39;16.00;75.40
24217;DHT22;12356;49.386;8.688;2023-05-10T08:50:10;16.00;71.80
24217;DHT22;12356;49.386;8.688;2023-05-10T08:52:41;16.10;69.10
24217;DHT22;12356;49.386;8.688;2023-05-10T08:55:12;16.20;71.00
24217;DHT22;12356;49.386;8.688;2023-05-10T08:57:42;16.20;74.40
24217;DHT22;12356;49.386;8.688;2023-05-10T09:00:13;16.20;74.00
24217;DHT22;12356;49.386;8.688;2023-05-10T09:02:44;16.20;73.30
24217;DHT22;12356;49.386;8.688;2023-05-10T09:05:16;16.20;74.10
24217;DHT22;12356;49.386;8.688;2023-05-10T09:07:47;16.20;70.60
24217;DHT22;12356;49.386;8.688;2023-05-10T09:10:19;16.20;71.70
24217;DHT22;12356;49.386;8.688;2023-05-10T09:12:50;16.20;71.60
24217;DHT22;12356;49.386;8.688;2023-05-10T09:15:21;16.20;71.00
24217;DHT22;12356;49.386;8.688;2023-05-10T09:17:52;16.20;71.00
24217;DHT22;12356;49.386;8.688;2023-05-10T09:20:23;16.10;68.30
24217;DHT22;12356;49.386;8.688;2023-05-10T09:22:54;16.10;63.40
24217;DHT22;12356;49.386;8.688;2023-05-10T09:25:24;16.10;62.50
24217;DHT22;12356;49.386;8.688;2023-05-10T09:27:55;16.00;66.30
24217;DHT22;12356;49.386;8.688;2023-05-10T09:30:30;16.00;65.50
24217;DHT22;12356;49.386;8.688;2023-05-10T09:33:00;16.00;66.80
24217;DHT22;12356;49.386;8.688;2023-05-10T09:35:32;16.00;65.90
24217;DHT22;12356;49.386;8.688;2023-05-10T09:38:04;16.00;63.60
24217;DHT22;12356;49.386;8.688;2023-05-10T09:40:35;16.00;64.10
24217;DHT22;12356;49.386;8.688;2023-05-10T09:43:08;16.00;65.70
24217;DHT22;12356;49.386;8.688;2023-05-10T09:45:41;16.00;65.70
24217;DHT22;12356;49.386;8.688;2023-05-10T09:48:11;16.00;64.30
24217;DHT22;12356;49.386;8.688;2023-05-10T09:50:42;16.10;62.90
24217;DHT22;12356;49.386;8.688;2023-05-10T09:53:14;16.10;58.60
24217;DHT22;12356;49.386;8.688;2023-05-10T09:55:46;16.10;60.10
24217;DHT22;12356;49.386;8.688;2023-05-10T09:58:17;16.10;59.70
24217;DHT22;12356;49.386;8.688;2023-05-10T10:00:47;16.10;57.20
24217;DHT22;12356;49.386;8.688;2023-05-10T10:03:21;16.10;61.30
24217;DHT22;12356;49.386;8.688;2023-05-10T10:05:52;16.20;61.70
24217;DHT22;12356;49.386;8.688;2023-05-10T10:08:26;16.20;61.20
24217;DHT22;12356;49.386;8.688;2023-05-10T10:10:57;16.30;63.20
24217;DHT22;12356;49.386;8.688;2023-05-10T10:13:28;16.30;56.80
24217;DHT22;12356;49.386;8.688;2023-05-10T10:15:59;16.30;55.80
24217;DHT22;12356;49.386;8.688;2023-05-10T10:18:31;16.30;56.30
24217;DHT22;12356;49.386;8.688;2023-05-10T10:21:01;16.30;55.70
24217;DHT22;12356;49.386;8.688;2023-05-10T10:23:32;16.40;54.90
24217;DHT22;12356;49.386;8.688;2023-05-10T10:26:04;16.40;49.30
24217;DHT22;12356;49.386;8.688;2023-05-10T10:29:10;16.30;50.70
24217;DHT22;12356;49.386;8.688;2023-05-10T10:34:28;16.30;52.60
24217;DHT22;12356;49.386;8.688;2023-05-10T10:37:04;16.30;52.60
24217;DHT22;12356;49.386;8.688;2023-05-10T10:39:35;16.20;48.50
24217;DHT22;12356;49.386;8.688;2023-05-10T10:42:06;16.20;48.50
24217;DHT22;12356;49.386;8.688;2023-05-10T10:44:37;16.20;49.00
24217;DHT22;12356;49.386;8.688;2023-05-10T10:49:49;16.20;43.40
24217;DHT22;12356;49.386;8.688;2023-05-10T10:52:22;16.10;39.10
24217;DHT22;12356;49.386;8.688;2023-05-10T10:57:48;16.20;48.20
24217;DHT22;12356;49.386;8.688;2023-05-10T11:00:23;16.20;42.20
24217;DHT22;12356;49.386;8.688;2023-05-10T11:03:13;16.30;42.10
24217;DHT22;12356;49.386;8.688;2023-05-10T11:05:50;16.30;40.00
24217;DHT22;12356;49.386;8.688;2023-05-10T11:08:32;16.40;39.90
24217;DHT22;12356;49.386;8.688;2023-05-10T11:11:05;16.40;36.50
24217;DHT22;12356;49.386;8.688;2023-05-10T11:13:42;16.50;37.00
24217;DHT22;12356;49.386;8.688;2023-05-10T11:16:20;16.50;38.90
24217;DHT22;12356;49.386;8.688;2023-05-10T11:19:06;16.60;41.40
24217;DHT22;12356;49.386;8.688;2023-05-10T11:21:47;16.70;37.20
24217;DHT22;12356;49.386;8.688;2023-05-10T11:24:20;16.70;36.30
24217;DHT22;12356;49.386;8.688;2023-05-10T11:26:51;16.70;34.10
24217;DHT22;12356;49.386;8.688;2023-05-10T11:29:22;16.70;32.60
24217;DHT22;12356;49.386;8.688;2023-05-10T11:31:57;16.80;35.90
24217;DHT22;12356;49.386;8.688;2023-05-10T11:34:31;16.70;33.10
24217;DHT22;12356;49.386;8.688;2023-05-10T11:37:05;16.70;38.60
24217;DHT22;12356;49.386;8.688;2023-05-10T11:39:35;16.70;39.00
24217;DHT22;12356;49.386;8.688;2023-05-10T11:42:06;16.70;37.20
24217;DHT22;12356;49.386;8.688;2023-05-10T11:44:39;16.70;35.60
24217;DHT22;12356;49.386;8.688;2023-05-10T11:47:12;16.70;33.40
24217;DHT22;12356;49.386;8.688;2023-05-10T11:49:46;16.70;34.10
24217;DHT22;12356;49.386;8.688;2023-05-10T11:52:18;16.70;35.80
24217;DHT22;12356;49.386;8.688;2023-05-10T11:54:53;16.70;33.20
24217;DHT22;12356;49.386;8.688;2023-05-10T11:57:26;16.70;36.50
24217;DHT22;12356;49.386;8.688;2023-05-10T11:59:58;16.80;31.30
24217;DHT22;12356;49.386;8.688;2023-05-10T12:02:28;16.80;35.30
24217;DHT22;12356;49.386;8.688;2023-05-10T12:04:59;16.90;33.30
24217;DHT22;12356;49.386;8.688;2023-05-10T12:07:30;17.00;36.80
24217;DHT22;12356;49.386;8.688;2023-05-10T12:10:08;17.00;31.40
24217;DHT22;12356;49.386;8.688;2023-05-10T12:12:41;17.10;28.10
24217;DHT22;12356;49.386;8.688;2023-05-10T12:15:19;17.10;33.70
24217;DHT22;12356;49.386;8.688;2023-05-10T12:17:50;17.10;32.90
24217;DHT22;12356;49.386;8.688;2023-05-10T12:20:26;17.10;34.30
24217;DHT22;12356;49.386;8.688;2023-05-10T12:22:58;17.10;33.80
24217;DHT22;12356;49.386;8.688;2023-05-10T12:25:37;17.10;35.90
24217;DHT22;12356;49.386;8.688;2023-05-10T12:28:09;17.10;37.20
24217;DHT22;12356;49.386;8.688;2023-05-10T12:30:40;17.10;36.10
24217;DHT22;12356;49.386;8.688;2023-05-10T12:33:12;17.10;36.20
24217;DHT22;12356;49.386;8.688;2023-05-10T12:35:49;17.10;36.00
24217;DHT22;12356;49.386;8.688;2023-05-10T12:38:31;17.00;36.10
24217;DHT22;12356;49.386;8.688;2023-05-10T12:41:04;17.00;37.00
24217;DHT22;12356;49.386;8.688;2023-05-10T12:43:36;17.00;36.20
24217;DHT22;12356;49.386;8.688;2023-05-10T12:46:15;17.00;35.50
24217;DHT22;12356;49.386;8.688;2023-05-10T12:48:46;17.00;35.50
24217;DHT22;12356;49.386;8.688;2023-05-10T12:51:19;17.00;34.80
24217;DHT22;12356;49.386;8.688;2023-05-10T12:53:52;17.00;34.20
24217;DHT22;12356;49.386;8.688;2023-05-10T12:56:22;17.00;32.00
24217;DHT22;12356;49.386;8.688;2023-05-10T12:58:53;17.00;31.20
24217;DHT22;12356;49.386;8.688;2023-05-10T13:01:23;17.00;29.50
24217;DHT22;12356;49.386;8.688;2023-05-10T13:03:54;17.00;28.70
24217;DHT22;12356;49.386;8.688;2023-05-10T13:06:24;17.10;25.80
24217;DHT22;12356;49.386;8.688;2023-05-10T13:08:55;17.20;27.70
24217;DHT22;12356;49.386;8.688;2023-05-10T13:11:27;17.20;24.00
24217;DHT22;12356;49.386;8.688;2023-05-10T13:13:58;17.30;24.10
24217;DHT22;12356;49.386;8.688;2023-05-10T13:16:29;17.30;25.40
24217;DHT22;12356;49.386;8.688;2023-05-10T13:18:59;17.30;25.60
24217;DHT22;12356;49.386;8.688;2023-05-10T13:21:30;17.40;25.30
24217;DHT22;12356;49.386;8.688;2023-05-10T13:24:00;17.40;25.60
24217;DHT22;12356;49.386;8.688;2023-05-10T13:26:31;17.50;23.10
24217;DHT22;12356;49.386;8.688;2023-05-10T13:29:02;17.60;25.80
24217;DHT22;12356;49.386;8.688;2023-05-10T13:31:34;17.60;20.20
24217;DHT22;12356;49.386;8.688;2023-05-10T13:34:05;17.60;20.20
24217;DHT22;12356;49.386;8.688;2023-05-10T13:36:36;17.60;22.60
24217;DHT22;12356;49.386;8.688;2023-05-10T13:39:06;17.70;23.00
24217;DHT22;12356;49.386;8.688;2023-05-10T13:41:37;17.70;17.30
24217;DHT22;12356;49.386;8.688;2023-05-10T13:44:08;17.70;13.20
24217;DHT22;12356;49.386;8.688;2023-05-10T13:46:38;17.70;14.00
24217;DHT22;12356;49.386;8.688;2023-05-10T13:49:09;17.70;16.80
24217;DHT22;12356;49.386;8.688;2023-05-10T13:51:40;17.70;14.80
24217;DHT22;12356;49.386;8.688;2023-05-10T13:54:10;17.60;14.00
24217;DHT22;12356;49.386;8.688;2023-05-10T13:56:42;17.60;16.90
24217;DHT22;12356;49.386;8.688;2023-05-10T13:59:13;17.60;14.50
24217;DHT22;12356;49.386;8.688;2023-05-10T14:01:44;17.60;17.10
24217;DHT22;12356;49.386;8.688;2023-05-10T14:04:14;17.70;17.90
24217;DHT22;12356;49.386;8.688;2023-05-10T14:06:45;17.60;13.70
24217;DHT22;12356;49.386;8.688;2023-05-10T14:09:16;17.60;13.50
24217;DHT22;12356;49.386;8.688;2023-05-10T14:11:46;17.60;13.70
24217;DHT22;12356;49.386;8.688;2023-05-10T14:14:17;17.60;12.20
24217;DHT22;12356;49.386;8.688;2023-05-10T14:16:48;17.60;11.10
24217;DHT22;12356;49.386;8.688;2023-05-10T14:19:19;17.60;13.30
24217;DHT22;12356;49.386;8.688;2023-05-10T14:21:49;17.60;14.70
24217;DHT22;12356;49.386;8.688;2023-05-10T14:24:22;17.60;13.20
24217;DHT22;12356;49.386;8.688;2023-05-10T14:26:52;17.70;13.40
24217;DHT22;12356;49.386;8.688;2023-05-10T14:29:24;17.70;14.40
24217;DHT22;12356;49.386;8.688;2023-05-10T14:31:55;17.70;15.60
24217;DHT22;12356;49.386;8.688;2023-05-10T14:34:25;17.80;13.90
24217;DHT22;12356;49.386;8.688;2023-05-10T14:36:56;17.80;13.70
24217;DHT22;12356;49.386;8.688;2023-05-10T14:39:26;17.80;12.80
24217;DHT22;12356;49.386;8.688;2023-05-10T14:41:59;17.70;12.40
24217;DHT22;12356;49.386;8.688;2023-05-10T14:44:30;17.80;11.00
24217;DHT22;12356;49.386;8.688;2023-05-10T14:47:00;17.80;14.30
24217;DHT22;12356;49.386;8.688;2023-05-10T14:49:31;17.80;14.00
24217;DHT22;12356;49.386;8.688;2023-05-10T14:52:02;17.80;12.10
24217;DHT22;12356;49.386;8.688;2023-05-10T14:54:33;17.80;11.20
24217;DHT22;12356;49.386;8.688;2023-05-10T14:57:03;17.70;12.50
24217;DHT22;12356;49.386;8.688;2023-05-10T14:59:34;17.80;12.90
24217;DHT22;12356;49.386;8.688;2023-05-10T15:02:05;17.80;13.30
24217;DHT22;12356;49.386;8.688;2023-05-10T15:04:36;17.80;15.90
24217;DHT22;12356;49.386;8.688;2023-05-10T15:07:06;17.80;15.50
24217;DHT22;12356;49.386;8.688;2023-05-10T15:09:37;17.80;15.20
24217;DHT22;12356;49.386;8.688;2023-05-10T15:12:07;17.80;13.70
24217;DHT22;12356;49.386;8.688;2023-05-10T15:14:38;17.80;13.70
24217;DHT22;12356;49.386;8.688;2023-05-10T15:17:08;17.80;11.40
24217;DHT22;12356;49.386;8.688;2023-05-10T15:19:39;17.80;9.40
24217;DHT22;12356;49.386;8.688;2023-05-10T15:22:10;17.80;10.30
24217;DHT22;12356;49.386;8.688;2023-05-10T15:24:40;17.70;13.70
24217;DHT22;12356;49.386;8.688;2023-05-10T15:27:11;17.70;12.40
24217;DHT22;12356;49.386;8.688;2023-05-10T15:29:41;17.70;14.40
24217;DHT22;12356;49.386;8.688;2023-05-10T15:32:12;17.70;11.10
24217;DHT22;12356;49.386;8.688;2023-05-10T15:34:42;17.70;11.30
24217;DHT22;12356;49.386;8.688;2023-05-10T15:37:13;17.70;13.60
24217;DHT22;12356;49.386;8.688;2023-05-10T15:39:44;17.70;10.00
24217;DHT22;12356;49.386;8.688;2023-05-10T15:42:14;17.60;9.00
24217;DHT22;12356;49.386;8.688;2023-05-10T15:44:45;17.60;10.00
24217;DHT22;12356;49.386;8.688;2023-05-10T15:47:20;17.70;11.70
24217;DHT22;12356;49.386;8.688;2023-05-10T15:49:51;17.60;9.60
24217;DHT22;12356;49.386;8.688;2023-05-10T15:52:21;17.70;10.50
24217;DHT22;12356;49.386;8.688;2023-05-10T15:54:53;17.70;14.30
24217;DHT22;12356;49.386;8.688;2023-05-10T15:57:23;17.70;13.50
24217;DHT22;12356;49.386;8.688;2023-05-10T15:59:54;17.80;11.50
24217;DHT22;12356;49.386;8.688;2023-05-10T16:02:25;17.80;9.60
24217;DHT22;12356;49.386;8.688;2023-05-10T16:04:56;17.80;9.20
24217;DHT22;12356;49.386;8.688;2023-05-10T16:07:26;17.80;10.50
24217;DHT22;12356;49.386;8.688;2023-05-10T16:09:57;17.80;14.80
24217;DHT22;12356;49.386;8.688;2023-05-10T16:12:28;17.80;13.80
24217;DHT22;12356;49.386;8.688;2023-05-10T16:14:59;17.80;10.80
24217;DHT22;12356;49.386;8.688;2023-05-10T16:17:30;17.80;10.80
24217;DHT22;12356;49.386;8.688;2023-05-10T16:20:00;17.80;10.40
24217;DHT22;12356;49.386;8.688;2023-05-10T16:22:31;17.80;13.60
24217;DHT22;12356;49.386;8.688;2023-05-10T16:25:02;17.80;15.70
24217;DHT22;12356;49.386;8.688;2023-05-10T16:27:33;17.80;16.70